createdAt,value
2023-04-18T00:02:07.391Z,102732.75
2023-04-18T00:04:34.234Z,102736.56
2023-04-18T00:07:00.972Z,102737.94
2023-04-18T00:09:27.678Z,102729.97
2023-04-18T00:11:54.264Z,102733.47
2023-04-18T00:14:20.728Z,102734.84
2023-04-18T00:16:47.324Z,102735.88
2023-04-18T00:19:14.311Z,102735.44
2023-04-18T00:21:44.708Z,102730.03
2023-04-18T00:24:11.665Z,102731.66
2023-04-18T00:26:38.132Z,102732.97
2023-04-18T00:29:05.174Z,102734.13
2023-04-18T00:31:32.554Z,102736.19
2023-04-18T00:33:58.998Z,102736.84
2023-04-18T00:36:25.995Z,102745.88
2023-04-18T00:38:52.500Z,102736.13
2023-04-18T00:41:20.292Z,102743.47
2023-04-18T00:43:46.729Z,102737.81
2023-04-18T00:46:13.290Z,102739.41
2023-04-18T00:48:39.972Z,102740.88
2023-04-18T00:51:07.630Z,102732.84
2023-04-18T00:53:34.302Z,102736.41
2023-04-18T00:56:00.742Z,102734.34
2023-04-18T00:58:27.562Z,102727.63
2023-04-18T01:00:54.670Z,102734.19
2023-04-18T01:03:22.804Z,102738.63
2023-04-18T01:05:49.742Z,102734.56
2023-04-18T01:08:18.785Z,102737.38
2023-04-18T01:10:45.494Z,102736.34
2023-04-18T01:13:17.658Z,102735.25
2023-04-18T01:15:49.755Z,102737.97
2023-04-18T01:18:17.581Z,102733.44
2023-04-18T01:20:48.829Z,102730.78
2023-04-18T01:23:17.137Z,102735.59
2023-04-18T01:25:44.462Z,102730.19
2023-04-18T01:28:12.349Z,102725.47
2023-04-18T01:30:38.878Z,102723.38
2023-04-18T01:33:06.464Z,102732.03
2023-04-18T01:35:33.728Z,102721.84
2023-04-18T01:38:01.183Z,102728.13
2023-04-18T01:40:27.902Z,102719.44
2023-04-18T01:42:54.471Z,102721.09
2023-04-18T01:45:22.299Z,102720.56
2023-04-18T01:47:48.851Z,102716.94
2023-04-18T01:50:15.481Z,102715.41
2023-04-18T01:52:41.967Z,102714.13
2023-04-18T01:55:08.899Z,102713.16
2023-04-18T01:57:38.215Z,102709.44
2023-04-18T02:00:06.332Z,102719.00
2023-04-18T02:02:33.104Z,102711.69
2023-04-18T02:04:59.737Z,102715.97
2023-04-18T02:07:26.221Z,102712.97
2023-04-18T02:09:52.634Z,102710.28
2023-04-18T02:12:19.148Z,102715.69
2023-04-18T02:14:45.563Z,102712.00
2023-04-18T02:17:11.980Z,102717.13
2023-04-18T02:19:38.490Z,102713.63
2023-04-18T02:22:04.942Z,102712.34
2023-04-18T02:24:31.400Z,102709.09
2023-04-18T02:26:58.183Z,102706.66
2023-04-18T02:29:24.694Z,102711.78
2023-04-18T02:31:51.224Z,102701.53
2023-04-18T02:34:17.694Z,102705.06
2023-04-18T02:36:44.121Z,102704.00
2023-04-18T02:39:10.639Z,102706.22
2023-04-18T02:41:38.005Z,102704.38
2023-04-18T02:44:04.529Z,102708.41
2023-04-18T02:46:31.097Z,102709.50
2023-04-18T02:48:57.632Z,102714.38
2023-04-18T02:51:24.163Z,102707.59
2023-04-18T02:53:54.881Z,102707.66
2023-04-18T02:56:21.919Z,102699.84
2023-04-18T02:58:49.290Z,102704.75
2023-04-18T03:01:17.741Z,102714.16
2023-04-18T03:03:44.307Z,102712.63
2023-04-18T03:06:10.806Z,102710.16
2023-04-18T03:08:37.323Z,102701.31
2023-04-18T03:11:03.830Z,102700.25
2023-04-18T03:13:30.415Z,102712.44
2023-04-18T03:15:56.967Z,102706.22
2023-04-18T03:18:23.740Z,102707.66
2023-04-18T03:20:50.215Z,102702.59
2023-04-18T03:23:16.660Z,102712.00
2023-04-18T03:25:43.152Z,102717.13
2023-04-18T03:28:09.571Z,102713.09
2023-04-18T03:30:36.120Z,102711.78
2023-04-18T03:33:02.737Z,102703.16
2023-04-18T03:35:29.392Z,102711.81
2023-04-18T03:37:56.039Z,102705.06
2023-04-18T03:40:22.516Z,102705.56
2023-04-18T03:42:48.984Z,102716.38
2023-04-18T03:45:16.589Z,102708.31
2023-04-18T03:47:43.106Z,102715.59
2023-04-18T03:50:09.966Z,102714.78
2023-04-18T03:52:36.431Z,102714.72
2023-04-18T03:55:03.226Z,102713.19
2023-04-18T03:57:29.709Z,102716.97
2023-04-18T03:59:56.233Z,102716.97
2023-04-18T04:02:22.976Z,102717.28
2023-04-18T04:04:49.922Z,102723.53
2023-04-18T04:07:16.450Z,102728.06
2023-04-18T04:09:42.927Z,102729.97
2023-04-18T04:12:09.379Z,102722.72
2023-04-18T04:14:35.915Z,102722.72
2023-04-18T04:17:02.504Z,102715.72
2023-04-18T04:19:28.934Z,102724.28
2023-04-18T04:21:55.375Z,102726.16
2023-04-18T04:24:22.689Z,102715.34
2023-04-18T04:26:50.737Z,102720.47
2023-04-18T04:29:17.636Z,102729.03
2023-04-18T04:31:44.174Z,102727.41
2023-04-18T04:34:10.653Z,102723.66
2023-04-18T04:36:37.110Z,102722.59
2023-04-18T04:39:04.236Z,102723.34
2023-04-18T04:41:31.589Z,102727.63
2023-04-18T04:43:59.484Z,102729.88
2023-04-18T04:46:29.451Z,102720.94
2023-04-18T04:48:56.481Z,102721.50
2023-04-18T04:51:23.168Z,102732.25
2023-04-18T04:53:49.630Z,102730.84
2023-04-18T04:56:16.174Z,102734.13
2023-04-18T04:58:42.746Z,102732.50
2023-04-18T05:01:09.254Z,102734.13
2023-04-18T05:03:36.533Z,102736.53
2023-04-18T05:06:03.261Z,102737.88
2023-04-18T05:08:29.740Z,102733.84
2023-04-18T05:10:56.209Z,102736.81
2023-04-18T05:13:22.727Z,102734.94
2023-04-18T05:15:49.220Z,102735.22
2023-04-18T05:18:15.967Z,102743.03
2023-04-18T05:20:42.450Z,102745.75
2023-04-18T05:23:08.919Z,102743.28
2023-04-18T05:25:35.566Z,102747.06
2023-04-18T05:28:04.534Z,102747.00
2023-04-18T05:30:31.043Z,102749.41
2023-04-18T05:32:57.589Z,102747.25
2023-04-18T05:35:24.034Z,102743.16
2023-04-18T05:37:51.372Z,102749.59
2023-04-18T05:40:17.808Z,102745.53
2023-04-18T05:42:44.267Z,102752.91
2023-04-18T05:45:11.321Z,102756.09
2023-04-18T05:47:37.827Z,102751.53
2023-04-18T05:50:06.668Z,102754.22
2023-04-18T05:52:33.169Z,102757.41
2023-04-18T05:54:59.667Z,102751.72
2023-04-18T05:57:26.138Z,102756.25
2023-04-18T05:59:52.642Z,102756.22
2023-04-18T06:02:19.223Z,102765.91
2023-04-18T06:04:46.250Z,102760.97
2023-04-18T06:07:12.808Z,102772.00
2023-04-18T06:09:39.254Z,102768.47
2023-04-18T06:12:06.146Z,102768.28
2023-04-18T06:14:32.735Z,102770.38
2023-04-18T06:16:59.571Z,102773.06
2023-04-18T06:19:26.143Z,102769.72
2023-04-18T06:21:53.310Z,102772.66
2023-04-18T06:24:19.892Z,102773.75
2023-04-18T06:26:46.608Z,102764.16
2023-04-18T06:29:13.241Z,102770.75
2023-04-18T06:31:39.876Z,102775.03
2023-04-18T06:34:06.421Z,102777.94
2023-04-18T06:36:33.029Z,102778.72
2023-04-18T06:38:59.526Z,102781.28
2023-04-18T06:41:26.020Z,102783.50
2023-04-18T06:46:26.238Z,102777.81
2023-04-18T06:48:52.890Z,102780.78
2023-04-18T06:51:19.345Z,102782.09
2023-04-18T06:53:46.078Z,102781.16
2023-04-18T06:56:12.643Z,102776.34
2023-04-18T06:58:39.281Z,102780.66
2023-04-18T07:01:05.872Z,102781.75
2023-04-18T07:03:32.390Z,102785.25
2023-04-18T07:05:59.014Z,102789.75
2023-04-18T07:08:25.548Z,102784.31
2023-04-18T07:10:52.043Z,102789.78
2023-04-18T07:13:18.482Z,102793.47
2023-04-18T07:15:45.056Z,102787.91
2023-04-18T07:18:11.900Z,102791.56
2023-04-18T07:20:40.271Z,102795.09
2023-04-18T07:23:07.518Z,102799.78
2023-04-18T07:25:34.013Z,102796.13
2023-04-18T07:28:00.534Z,102792.31
2023-04-18T07:30:27.206Z,102792.31
2023-04-18T07:32:53.768Z,102793.06
2023-04-18T07:35:20.455Z,102791.66
2023-04-18T07:37:46.983Z,102786.91
2023-04-18T07:40:13.832Z,102794.00
2023-04-18T07:42:40.339Z,102784.75
2023-04-18T07:45:07.399Z,102786.28
2023-04-18T07:47:33.981Z,102785.69
2023-04-18T07:50:00.670Z,102795.91
2023-04-18T07:52:27.272Z,102797.94
2023-04-18T07:54:53.750Z,102783.31
2023-04-18T07:57:20.416Z,102790.56
2023-04-18T07:59:46.906Z,102785.41
2023-04-18T08:02:13.421Z,102790.28
2023-04-18T08:04:40.126Z,102793.28
2023-04-18T08:07:06.785Z,102789.31
2023-04-18T08:09:34.233Z,102794.16
2023-04-18T08:12:00.816Z,102785.84
2023-04-18T08:14:27.282Z,102788.88
2023-04-18T08:16:53.956Z,102792.69
2023-04-18T08:19:20.416Z,102796.69
2023-04-18T08:21:46.909Z,102791.53
2023-04-18T08:24:13.384Z,102799.63
2023-04-18T08:26:39.917Z,102797.88
2023-04-18T08:29:06.472Z,102811.19
2023-04-18T08:31:32.972Z,102801.25
2023-04-18T08:33:59.586Z,102795.69
2023-04-18T08:36:26.753Z,102789.25
2023-04-18T08:38:53.311Z,102796.94
2023-04-18T08:41:25.053Z,102790.97
2023-04-18T08:43:51.649Z,102802.66
2023-04-18T08:46:19.025Z,102799.28
2023-04-18T08:48:49.260Z,102802.56
2023-04-18T08:51:15.803Z,102795.03
2023-04-18T08:53:45.092Z,102803.38
2023-04-18T08:56:14.662Z,102788.94
2023-04-18T08:58:41.207Z,102794.78
2023-04-18T09:01:07.856Z,102788.72
2023-04-18T09:03:41.808Z,102787.72
2023-04-18T09:06:19.360Z,102786.06
2023-04-18T09:09:02.801Z,102790.06
2023-04-18T09:11:31.725Z,102790.81
2023-04-18T09:14:02.433Z,102788.44
2023-04-18T09:16:44.536Z,102791.94
2023-04-18T09:19:18.587Z,102788.97
2023-04-18T09:21:48.910Z,102793.09
2023-04-18T09:24:17.566Z,102781.91
2023-04-18T09:26:44.078Z,102782.22
2023-04-18T09:29:10.641Z,102784.34
2023-04-18T09:31:54.979Z,102782.50
2023-04-18T09:34:26.278Z,102785.38
2023-04-18T09:37:25.970Z,102785.19
2023-04-18T09:39:52.639Z,102789.22
2023-04-18T09:42:19.381Z,102788.09
2023-04-18T09:45:07.046Z,102787.94
2023-04-18T09:47:35.367Z,102782.16
2023-04-18T09:50:07.162Z,102781.84
2023-04-18T09:52:41.319Z,102780.84
2023-04-18T09:55:09.615Z,102784.09
2023-04-18T09:57:40.601Z,102776.69
2023-04-18T10:00:14.116Z,102778.31
2023-04-18T10:02:48.934Z,102785.03
2023-04-18T10:05:18.267Z,102779.44
2023-04-18T10:07:48.929Z,102784.41
2023-04-18T10:10:16.939Z,102788.91
2023-04-18T10:12:45.950Z,102782.66
2023-04-18T10:15:12.540Z,102784.56
2023-04-18T10:17:52.679Z,102791.44
2023-04-18T10:20:31.432Z,102781.63
2023-04-18T10:22:59.506Z,102778.94
2023-04-18T10:25:34.862Z,102774.59
2023-04-18T10:28:02.842Z,102777.94
2023-04-18T10:30:38.986Z,102765.69
2023-04-18T10:33:32.307Z,102770.50
2023-04-18T10:36:06.412Z,102767.66
2023-04-18T10:38:34.109Z,102783.59
2023-04-18T10:41:23.601Z,102777.34
2023-04-18T10:44:09.059Z,102779.59
2023-04-18T10:46:41.227Z,102771.06
2023-04-18T10:49:18.111Z,102761.59
2023-04-18T10:51:45.890Z,102754.50
2023-04-18T10:54:41.814Z,102753.66
2023-04-18T10:57:09.973Z,102748.38
2023-04-18T10:59:42.167Z,102762.97
2023-04-18T11:02:30.611Z,102766.81
2023-04-18T11:04:59.642Z,102756.56
2023-04-18T11:07:35.268Z,102759.34
2023-04-18T11:10:02.236Z,102759.66
2023-04-18T11:12:32.044Z,102757.53
2023-04-18T11:15:01.300Z,102755.59
2023-04-18T11:17:32.649Z,102749.03
2023-04-18T11:20:09.240Z,102741.41
2023-04-18T11:22:53.202Z,102750.72
2023-04-18T11:25:23.859Z,102749.75
2023-04-18T11:27:51.742Z,102745.84
2023-04-18T11:30:18.897Z,102750.34
2023-04-18T11:32:45.854Z,102736.72
2023-04-18T11:35:14.376Z,102741.50
2023-04-18T11:37:41.579Z,102735.34
2023-04-18T11:40:09.927Z,102739.91
2023-04-18T11:42:38.899Z,102739.47
2023-04-18T11:45:15.799Z,102731.97
2023-04-18T11:47:43.556Z,102739.94
2023-04-18T11:50:12.061Z,102744.97
2023-04-18T11:52:41.135Z,102739.13
2023-04-18T11:55:13.706Z,102746.81
2023-04-18T11:57:41.370Z,102754.56
2023-04-18T12:00:09.469Z,102743.19
2023-04-18T12:02:40.657Z,102742.22
2023-04-18T12:05:08.030Z,102744.44
2023-04-18T12:07:39.955Z,102746.31
2023-04-18T12:10:23.935Z,102749.28
2023-04-18T12:12:58.951Z,102744.19
2023-04-18T12:15:28.204Z,102742.78
2023-04-18T12:18:04.034Z,102743.25
2023-04-18T12:20:51.492Z,102748.59
2023-04-18T12:23:40.384Z,102751.41
2023-04-18T12:26:11.532Z,102744.13
2023-04-18T12:28:38.267Z,102757.38
2023-04-18T12:31:07.877Z,102750.13
2023-04-18T12:33:36.746Z,102744.88
2023-04-18T12:36:05.447Z,102748.75
2023-04-18T12:38:32.085Z,102748.75
2023-04-18T12:40:58.652Z,102750.09
2023-04-18T12:43:25.772Z,102738.38
2023-04-18T12:45:52.374Z,102743.50
2023-04-18T12:48:18.863Z,102739.28
2023-04-18T12:50:45.322Z,102740.94
2023-04-18T12:53:11.855Z,102728.84
2023-04-18T12:55:38.401Z,102732.28
2023-04-18T12:58:04.859Z,102727.81
2023-04-18T13:00:32.900Z,102738.69
2023-04-18T13:02:59.870Z,102729.75
2023-04-18T13:05:31.662Z,102730.09
2023-04-18T13:08:15.436Z,102719.16
2023-04-18T13:10:44.024Z,102722.50
2023-04-18T13:13:10.714Z,102721.63
2023-04-18T13:15:37.464Z,102718.75
2023-04-18T13:18:06.368Z,102724.38
2023-04-18T13:20:34.056Z,102724.38
2023-04-18T13:23:02.469Z,102714.97
2023-04-18T13:25:29.113Z,102716.44
2023-04-18T13:27:57.440Z,102714.69
2023-04-18T13:30:24.016Z,102727.03
2023-04-18T13:32:50.759Z,102722.84
2023-04-18T13:35:17.424Z,102718.03
2023-04-18T13:37:44.003Z,102728.41
2023-04-18T13:40:11.067Z,102720.91
2023-04-18T13:42:38.587Z,102719.69
2023-04-18T13:45:05.766Z,102724.22
2023-04-18T13:47:32.500Z,102733.28
2023-04-18T13:49:59.303Z,102727.41
2023-04-18T13:52:26.191Z,102729.03
2023-04-18T13:54:53.013Z,102726.91
2023-04-18T13:57:19.667Z,102728.13
2023-04-18T13:59:46.271Z,102723.31
2023-04-18T14:02:12.833Z,102720.41
2023-04-18T14:04:39.593Z,102734.19
2023-04-18T14:07:06.402Z,102726.69
2023-04-18T14:09:33.533Z,102722.38
2023-04-18T14:11:59.985Z,102722.03
2023-04-18T14:14:26.527Z,102725.31
2023-04-18T14:16:53.932Z,102717.13
2023-04-18T14:19:20.656Z,102715.47
2023-04-18T14:21:48.007Z,102721.97
2023-04-18T14:24:14.561Z,102713.78
2023-04-18T14:26:41.859Z,102704.06
2023-04-18T14:29:08.402Z,102698.34
2023-04-18T14:31:35.187Z,102705.31
2023-04-18T14:34:01.731Z,102693.72
2023-04-18T14:36:28.286Z,102696.53
2023-04-18T14:38:55.136Z,102694.53
2023-04-18T14:41:21.749Z,102694.28
2023-04-18T14:43:48.698Z,102698.03
2023-04-18T14:46:18.876Z,102696.78
2023-04-18T14:48:46.822Z,102690.34
2023-04-18T14:51:15.043Z,102690.16
2023-04-18T14:53:41.585Z,102692.69
2023-04-18T14:56:08.050Z,102701.03
2023-04-18T14:58:34.548Z,102685.75
2023-04-18T15:01:01.103Z,102689.72
2023-04-18T15:03:27.700Z,102689.59
2023-04-18T15:05:55.064Z,102689.13
2023-04-18T15:08:22.018Z,102680.41
2023-04-18T15:10:48.649Z,102677.75
2023-04-18T15:13:15.798Z,102676.78
2023-04-18T15:15:42.454Z,102677.78
2023-04-18T15:18:10.338Z,102675.97
2023-04-18T15:20:37.312Z,102673.88
2023-04-18T15:23:03.886Z,102676.88
2023-04-18T15:25:30.949Z,102682.72
2023-04-18T15:27:58.366Z,102675.63
2023-04-18T15:30:25.525Z,102681.31
2023-04-18T15:32:52.332Z,102679.13
2023-04-18T15:35:18.970Z,102671.94
2023-04-18T15:37:45.443Z,102668.25
2023-04-18T15:40:16.197Z,102675.53
2023-04-18T15:42:43.716Z,102672.06
2023-04-18T15:45:11.660Z,102667.19
2023-04-18T15:47:38.838Z,102669.69
2023-04-18T15:50:06.017Z,102666.31
2023-04-18T15:52:32.505Z,102660.44
2023-04-18T15:54:59.064Z,102666.31
2023-04-18T15:57:25.575Z,102654.78
2023-04-18T15:59:52.148Z,102661.09
2023-04-18T16:02:18.678Z,102663.63
2023-04-18T16:04:45.593Z,102661.69
2023-04-18T16:07:12.283Z,102653.38
2023-04-18T16:09:38.736Z,102664.31
2023-04-18T16:12:07.162Z,102658.06
2023-04-18T16:14:33.713Z,102653.63
2023-04-18T16:17:00.496Z,102656.03
2023-04-18T16:19:27.041Z,102655.81
2023-04-18T16:21:53.503Z,102646.22
2023-04-18T16:24:19.943Z,102650.78
2023-04-18T16:26:46.526Z,102658.81
2023-04-18T16:29:12.999Z,102667.31
2023-04-18T16:31:39.620Z,102657.75
2023-04-18T16:34:06.203Z,102656.06
2023-04-18T16:36:34.705Z,102655.69
2023-04-18T16:39:01.197Z,102661.44
2023-04-18T16:41:27.719Z,102663.47
2023-04-18T16:43:54.200Z,102657.63
2023-04-18T16:46:20.659Z,102657.88
2023-04-18T16:48:47.256Z,102664.44
2023-04-18T16:51:13.780Z,102653.72
2023-04-18T16:53:40.320Z,102657.34
2023-04-18T16:56:07.940Z,102655.66
2023-04-18T16:58:34.494Z,102651.97
2023-04-18T17:01:04.210Z,102647.31
2023-04-18T17:03:30.903Z,102643.81
2023-04-18T17:05:57.447Z,102646.06
2023-04-18T17:08:25.793Z,102650.97
2023-04-18T17:10:52.864Z,102656.16
2023-04-18T17:13:19.478Z,102646.69
2023-04-18T17:15:46.300Z,102647.88
2023-04-18T17:18:12.821Z,102649.94
2023-04-18T17:20:39.360Z,102651.09
2023-04-18T17:23:05.908Z,102653.78
2023-04-18T17:25:32.435Z,102652.75
2023-04-18T17:28:02.013Z,102647.03
2023-04-18T17:30:29.271Z,102653.63
2023-04-18T17:32:55.951Z,102654.97
2023-04-18T17:35:22.900Z,102653.00
2023-04-18T17:37:50.134Z,102655.88
2023-04-18T17:40:16.599Z,102655.75
2023-04-18T17:42:43.248Z,102658.47
2023-04-18T17:45:10.090Z,102661.75
2023-04-18T17:47:36.860Z,102655.09
2023-04-18T17:50:04.156Z,102659.09
2023-04-18T17:52:31.133Z,102655.16
2023-04-18T17:54:59.225Z,102656.38
2023-04-18T17:57:26.663Z,102652.28
2023-04-18T17:59:53.402Z,102659.25
2023-04-18T18:02:20.285Z,102663.59
2023-04-18T18:04:47.174Z,102662.28
2023-04-18T18:07:13.760Z,102664.03
2023-04-18T18:09:42.071Z,102651.81
2023-04-18T18:12:10.004Z,102669.28
2023-04-18T18:14:36.582Z,102664.25
2023-04-18T18:17:03.439Z,102677.25
2023-04-18T18:19:29.953Z,102684.88
2023-04-18T18:21:56.414Z,102677.25
2023-04-18T18:24:25.108Z,102680.19
2023-04-18T18:26:51.848Z,102677.50
2023-04-18T18:29:19.285Z,102671.41
2023-04-18T18:31:45.955Z,102671.75
2023-04-18T18:34:12.520Z,102671.19
2023-04-18T18:36:40.143Z,102676.06
2023-04-18T18:39:06.959Z,102670.97
2023-04-18T18:41:33.548Z,102676.63
2023-04-18T18:44:00.212Z,102679.38
2023-04-18T18:46:27.657Z,102674.69
2023-04-18T18:48:54.159Z,102678.72
2023-04-18T18:51:20.740Z,102674.75
2023-04-18T18:53:47.225Z,102690.31
2023-04-18T18:56:13.781Z,102682.94
2023-04-18T18:58:40.428Z,102691.00
2023-04-18T19:01:07.206Z,102690.34
2023-04-18T19:03:34.863Z,102695.19
2023-04-18T19:06:03.913Z,102698.72
2023-04-18T19:08:30.889Z,102707.38
2023-04-18T19:10:57.349Z,102706.25
2023-04-18T19:13:24.260Z,102712.03
2023-04-18T19:15:51.539Z,102711.84
2023-04-18T19:18:19.970Z,102710.75
2023-04-18T19:20:47.089Z,102713.16
2023-04-18T19:23:13.647Z,102717.00
2023-04-18T19:25:40.194Z,102715.19
2023-04-18T19:28:06.776Z,102722.88
2023-04-18T19:30:33.296Z,102734.72
2023-04-18T19:32:59.977Z,102725.72
2023-04-18T19:35:26.533Z,102727.97
2023-04-18T19:37:55.881Z,102731.81
2023-04-18T19:40:23.668Z,102727.50
2023-04-18T19:42:50.165Z,102734.88
2023-04-18T19:45:16.670Z,102737.88
2023-04-18T19:47:44.338Z,102734.00
2023-04-18T19:50:11.453Z,102742.78
2023-04-18T19:52:38.022Z,102741.47
2023-04-18T19:55:04.843Z,102742.91
2023-04-18T19:57:31.413Z,102745.91
2023-04-18T19:59:57.946Z,102748.78
2023-04-18T20:02:24.542Z,102748.00
2023-04-18T20:04:51.371Z,102759.22
2023-04-18T20:07:17.999Z,102753.72
2023-04-18T20:09:44.455Z,102753.59
2023-04-18T20:12:11.045Z,102754.56
2023-04-18T20:14:37.536Z,102760.13
2023-04-18T20:17:04.046Z,102756.44
2023-04-18T20:19:30.736Z,102760.09
2023-04-18T20:21:57.275Z,102749.50
2023-04-18T20:24:23.852Z,102753.50
2023-04-18T20:26:51.377Z,102758.16
2023-04-18T20:29:17.862Z,102754.59
2023-04-18T20:31:44.353Z,102762.09
2023-04-18T20:34:11.002Z,102760.63
2023-04-18T20:36:41.476Z,102765.56
2023-04-18T20:39:11.865Z,102760.13
2023-04-18T20:41:46.490Z,102762.66
2023-04-18T20:44:13.761Z,102759.13
2023-04-18T20:46:43.080Z,102764.44
2023-04-18T20:49:09.951Z,102759.59
2023-04-18T20:51:37.125Z,102760.69
2023-04-18T20:54:04.598Z,102768.88
2023-04-18T20:56:31.977Z,102775.72
2023-04-18T20:58:58.419Z,102768.50
2023-04-18T21:01:25.091Z,102763.97
2023-04-18T21:03:51.753Z,102768.28
2023-04-18T21:06:21.928Z,102770.50
2023-04-18T21:08:48.745Z,102770.03
2023-04-18T21:11:15.304Z,102781.09
2023-04-18T21:13:41.815Z,102771.25
2023-04-18T21:16:10.225Z,102775.41
2023-04-18T21:18:37.082Z,102785.78
2023-04-18T21:21:04.284Z,102782.28
2023-04-18T21:23:30.812Z,102790.03
2023-04-18T21:25:57.326Z,102791.66
2023-04-18T21:28:23.812Z,102795.78
2023-04-18T21:30:50.701Z,102786.63
2023-04-18T21:33:17.233Z,102779.56
2023-04-18T21:35:43.745Z,102785.94
2023-04-18T21:38:10.243Z,102787.47
2023-04-18T21:40:37.454Z,102789.38
2023-04-18T21:43:03.929Z,102777.78
2023-04-18T21:45:30.453Z,102788.47
2023-04-18T21:47:57.020Z,102790.16
2023-04-18T21:50:23.597Z,102789.88
2023-04-18T21:52:50.121Z,102783.53
2023-04-18T21:55:17.874Z,102796.81
2023-04-18T21:57:44.372Z,102784.63
2023-04-18T22:00:11.357Z,102788.75
2023-04-18T22:02:37.952Z,102788.25
2023-04-18T22:05:04.865Z,102786.66
2023-04-18T22:07:31.353Z,102786.34
2023-04-18T22:09:59.748Z,102787.75
2023-04-18T22:12:26.378Z,102794.09
2023-04-18T22:14:53.080Z,102787.84
2023-04-18T22:17:20.932Z,102795.53
2023-04-18T22:19:49.708Z,102794.72
2023-04-18T22:22:16.441Z,102791.81
2023-04-18T22:24:43.983Z,102792.72
2023-04-18T22:27:11.404Z,102794.84
2023-04-18T22:29:38.114Z,102790.59
2023-04-18T22:32:04.835Z,102791.41
2023-04-18T22:34:31.293Z,102793.00
2023-04-18T22:36:57.767Z,102785.84
2023-04-18T22:39:24.717Z,102791.19
2023-04-18T22:41:51.198Z,102782.53
2023-04-18T22:44:17.754Z,102794.03
2023-04-18T22:46:44.704Z,102796.13
2023-04-18T22:49:11.341Z,102793.44
2023-04-18T22:51:38.152Z,102787.19
2023-04-18T22:54:05.223Z,102796.72
2023-04-18T22:56:31.711Z,102790.72
2023-04-18T22:58:58.137Z,102793.13
2023-04-18T23:01:24.630Z,102797.03
2023-04-18T23:03:51.238Z,102792.41
2023-04-18T23:06:17.858Z,102795.75
2023-04-18T23:08:44.337Z,102792.41
2023-04-18T23:11:11.190Z,102804.50
2023-04-18T23:13:37.696Z,102789.41
2023-04-18T23:16:04.527Z,102804.28
2023-04-18T23:18:31.096Z,102805.19
2023-04-18T23:20:57.577Z,102814.66
2023-04-18T23:23:24.065Z,102804.50
2023-04-18T23:25:50.527Z,102807.41
2023-04-18T23:28:17.212Z,102808.41
2023-04-18T23:30:44.202Z,102808.63
2023-04-18T23:33:10.958Z,102809.44
2023-04-18T23:35:37.430Z,102808.00
2023-04-18T23:38:03.877Z,102811.75
2023-04-18T23:40:30.479Z,102808.13
2023-04-18T23:42:57.106Z,102812.75
2023-04-18T23:45:24.343Z,102812.66
2023-04-18T23:47:51.431Z,102808.50
2023-04-18T23:50:18.078Z,102811.84
2023-04-18T23:52:44.558Z,102814.56
2023-04-18T23:55:11.187Z,102791.81
2023-04-18T23:57:37.660Z,102796.44
